sensor_id;sensor_type;location;lat;lon;timestamp;pressure;altitude;pressure_sealevel;temperature;humidity
17230;BME280;8731;50.364;8.958;2023-01-31T00:04:05;100846.25;;;5.42;83.21
17230;BME280;8731;50.364;8.958;2023-01-31T00:08:28;100845.88;;;5.39;83.27
17230;BME280;8731;50.364;8.958;2023-01-31T00:12:51;100852.88;;;5.34;83.24
17230;BME280;8731;50.364;8.958;2023-01-31T00:17:14;100862.81;;;5.33;84.26
17230;BME280;8731;50.364;8.958;2023-01-31T00:21:36;100856.13;;;5.33;84.72
17230;BME280;8731;50.364;8.958;2023-01-31T00:26:10;100852.88;;;5.34;84.79
17230;BME280;8731;50.364;8.958;2023-01-31T00:30:34;100850.38;;;5.34;84.20
17230;BME280;8731;50.364;8.958;2023-01-31T00:34:58;100857.19;;;5.28;85.16
17230;BME280;8731;50.364;8.958;2023-01-31T00:39:20;100856.28;;;5.28;85.16
17230;BME280;8731;50.364;8.958;2023-01-31T00:43:42;100861.88;;;5.25;84.78
17230;BME280;8731;50.364;8.958;2023-01-31T00:48:05;100860.06;;;5.24;84.80
17230;BME280;8731;50.364;8.958;2023-01-31T00:52:28;100850.72;;;5.30;84.47
17230;BME280;8731;50.364;8.958;2023-01-31T00:56:51;100860.81;;;5.30;84.63
17230;BME280;8731;50.364;8.958;2023-01-31T01:01:15;100869.63;;;5.27;85.61
17230;BME280;8731;50.364;8.958;2023-01-31T01:05:39;100870.53;;;5.27;84.85
17230;BME280;8731;50.364;8.958;2023-01-31T01:10:04;100874.13;;;5.22;84.58
17230;BME280;8731;50.364;8.958;2023-01-31T01:14:26;100875.00;;;5.22;84.87
17230;BME280;8731;50.364;8.958;2023-01-31T01:18:49;100876.63;;;5.22;84.84
17230;BME280;8731;50.364;8.958;2023-01-31T01:23:14;100879.88;;;5.21;85.01
17230;BME280;8731;50.364;8.958;2023-01-31T01:27:37;100872.22;;;5.14;85.29
17230;BME280;8731;50.364;8.958;2023-01-31T01:32:00;100887.72;;;5.10;84.98
17230;BME280;8731;50.364;8.958;2023-01-31T01:36:22;100901.09;;;5.16;85.25
17230;BME280;8731;50.364;8.958;2023-01-31T01:40:45;100891.91;;;5.16;84.74
17230;BME280;8731;50.364;8.958;2023-01-31T01:45:12;100891.91;;;5.16;84.65
17230;BME280;8731;50.364;8.958;2023-01-31T01:49:36;100894.53;;;5.04;84.96
17230;BME280;8731;50.364;8.958;2023-01-31T01:54:02;100899.63;;;5.11;84.50
17230;BME280;8731;50.364;8.958;2023-01-31T01:58:32;100903.13;;;4.99;84.52
17230;BME280;8731;50.364;8.958;2023-01-31T02:03:03;100896.47;;;4.99;84.67
17230;BME280;8731;50.364;8.958;2023-01-31T02:07:27;100902.94;;;4.97;85.42
17230;BME280;8731;50.364;8.958;2023-01-31T02:11:50;100904.81;;;4.85;85.89
17230;BME280;8731;50.364;8.958;2023-01-31T02:16:14;100898.34;;;4.87;85.61
17230;BME280;8731;50.364;8.958;2023-01-31T02:20:56;100901.25;;;4.90;86.34
17230;BME280;8731;50.364;8.958;2023-01-31T02:25:51;100911.63;;;4.79;86.47
17230;BME280;8731;50.364;8.958;2023-01-31T02:36:00;100909.53;;;4.70;87.44
17230;BME280;8731;50.364;8.958;2023-01-31T02:40:37;100919.50;;;4.75;87.55
17230;BME280;8731;50.364;8.958;2023-01-31T02:45:08;100919.22;;;4.67;87.22
17230;BME280;8731;50.364;8.958;2023-01-31T02:49:40;100922.47;;;4.66;87.23
17230;BME280;8731;50.364;8.958;2023-01-31T02:54:16;100924.09;;;4.65;87.72
17230;BME280;8731;50.364;8.958;2023-01-31T02:58:45;100930.63;;;4.70;86.75
17230;BME280;8731;50.364;8.958;2023-01-31T03:03:20;100941.03;;;4.66;87.29
17230;BME280;8731;50.364;8.958;2023-01-31T03:07:47;100945.75;;;4.70;86.98
17230;BME280;8731;50.364;8.958;2023-01-31T03:12:22;100950.00;;;4.64;87.43
17230;BME280;8731;50.364;8.958;2023-01-31T03:17:01;100954.41;;;4.72;87.71
17230;BME280;8731;50.364;8.958;2023-01-31T03:21:48;100955.22;;;4.78;86.55
17230;BME280;8731;50.364;8.958;2023-01-31T03:26:15;100968.88;;;4.73;86.99
17230;BME280;8731;50.364;8.958;2023-01-31T03:30:46;100961.88;;;4.78;86.72
17230;BME280;8731;50.364;8.958;2023-01-31T03:35:13;100973.59;;;4.77;87.16
17230;BME280;8731;50.364;8.958;2023-01-31T03:39:38;100964.50;;;4.72;87.25
17230;BME280;8731;50.364;8.958;2023-01-31T03:44:12;100969.63;;;4.79;86.92
17230;BME280;8731;50.364;8.958;2023-01-31T03:48:42;100977.00;;;4.78;86.82
17230;BME280;8731;50.364;8.958;2023-01-31T03:53:12;100971.56;;;4.75;87.33
17230;BME280;8731;50.364;8.958;2023-01-31T03:57:41;100975.72;;;4.74;87.85
17230;BME280;8731;50.364;8.958;2023-01-31T04:02:09;100968.16;;;4.74;87.27
17230;BME280;8731;50.364;8.958;2023-01-31T04:06:35;100972.78;;;4.71;88.55
17230;BME280;8731;50.364;8.958;2023-01-31T04:11:03;100968.38;;;4.63;88.42
17230;BME280;8731;50.364;8.958;2023-01-31T04:15:28;100973.03;;;4.60;89.55
17230;BME280;8731;50.364;8.958;2023-01-31T04:19:51;100980.78;;;4.61;89.37
17230;BME280;8731;50.364;8.958;2023-01-31T04:24:15;100965.28;;;4.58;88.63
17230;BME280;8731;50.364;8.958;2023-01-31T04:28:37;100966.56;;;4.62;89.05
17230;BME280;8731;50.364;8.958;2023-01-31T04:33:00;100963.59;;;4.52;89.05
17230;BME280;8731;50.364;8.958;2023-01-31T04:37:22;100966.88;;;4.58;89.29
17230;BME280;8731;50.364;8.958;2023-01-31T04:41:45;100948.34;;;4.57;88.84
17230;BME280;8731;50.364;8.958;2023-01-31T04:46:08;100934.25;;;4.52;88.62
17230;BME280;8731;50.364;8.958;2023-01-31T04:50:30;100929.09;;;4.45;88.32
17230;BME280;8731;50.364;8.958;2023-01-31T04:54:52;100929.25;;;4.59;88.44
17230;BME280;8731;50.364;8.958;2023-01-31T04:59:16;100931.78;;;4.59;88.69
17230;BME280;8731;50.364;8.958;2023-01-31T05:03:38;100926.34;;;4.56;88.35
17230;BME280;8731;50.364;8.958;2023-01-31T05:08:01;100930.50;;;4.56;88.86
17230;BME280;8731;50.364;8.958;2023-01-31T05:12:23;100930.00;;;4.46;87.49
17230;BME280;8731;50.364;8.958;2023-01-31T05:16:47;100934.19;;;4.32;88.11
17230;BME280;8731;50.364;8.958;2023-01-31T05:21:09;100932.00;;;4.28;88.67
17230;BME280;8731;50.364;8.958;2023-01-31T05:25:33;100933.81;;;4.29;87.99
17230;BME280;8731;50.364;8.958;2023-01-31T05:29:56;100925.75;;;4.19;87.58
17230;BME280;8731;50.364;8.958;2023-01-31T05:34:22;100919.84;;;4.06;88.00
17230;BME280;8731;50.364;8.958;2023-01-31T05:38:45;100917.41;;;4.00;88.49
17230;BME280;8731;50.364;8.958;2023-01-31T05:43:08;100920.69;;;3.87;87.12
17230;BME280;8731;50.364;8.958;2023-01-31T05:47:30;100929.97;;;3.81;87.28
17230;BME280;8731;50.364;8.958;2023-01-31T05:51:54;100931.16;;;3.77;88.11
17230;BME280;8731;50.364;8.958;2023-01-31T05:56:16;100933.69;;;3.64;87.94
17230;BME280;8731;50.364;8.958;2023-01-31T06:00:39;100933.00;;;3.65;88.48
17230;BME280;8731;50.364;8.958;2023-01-31T06:05:02;100925.63;;;3.54;88.01
17230;BME280;8731;50.364;8.958;2023-01-31T06:09:26;100921.19;;;3.46;88.56
17230;BME280;8731;50.364;8.958;2023-01-31T06:13:48;100919.28;;;3.38;88.00
17230;BME280;8731;50.364;8.958;2023-01-31T06:18:10;100913.72;;;3.28;88.18
17230;BME280;8731;50.364;8.958;2023-01-31T06:22:33;100920.69;;;3.23;86.89
17230;BME280;8731;50.364;8.958;2023-01-31T06:26:57;100915.03;;;3.19;87.45
17230;BME280;8731;50.364;8.958;2023-01-31T06:31:20;100914.63;;;3.16;87.09
17230;BME280;8731;50.364;8.958;2023-01-31T06:35:42;100915.34;;;3.15;87.21
17230;BME280;8731;50.364;8.958;2023-01-31T06:40:05;100915.00;;;3.06;87.30
17230;BME280;8731;50.364;8.958;2023-01-31T06:44:29;100925.78;;;3.05;87.59
17230;BME280;8731;50.364;8.958;2023-01-31T06:48:52;100928.47;;;2.94;88.02
17230;BME280;8731;50.364;8.958;2023-01-31T06:53:14;100930.69;;;2.85;88.59
17230;BME280;8731;50.364;8.958;2023-01-31T06:57:44;100939.34;;;2.87;88.62
17230;BME280;8731;50.364;8.958;2023-01-31T07:02:10;100940.22;;;2.88;89.28
17230;BME280;8731;50.364;8.958;2023-01-31T07:06:32;100949.09;;;2.91;89.24
17230;BME280;8731;50.364;8.958;2023-01-31T07:10:54;100950.50;;;2.89;90.97
17230;BME280;8731;50.364;8.958;2023-01-31T07:15:17;100947.88;;;2.95;90.08
17230;BME280;8731;50.364;8.958;2023-01-31T07:19:40;100955.53;;;3.02;90.10
17230;BME280;8731;50.364;8.958;2023-01-31T07:24:03;100952.53;;;3.04;89.77
17230;BME280;8731;50.364;8.958;2023-01-31T07:28:26;100951.56;;;3.10;90.04
17230;BME280;8731;50.364;8.958;2023-01-31T07:32:48;100949.84;;;3.16;90.32
17230;BME280;8731;50.364;8.958;2023-01-31T07:37:12;100942.00;;;3.20;89.59
17230;BME280;8731;50.364;8.958;2023-01-31T07:41:34;100937.59;;;3.24;89.80
17230;BME280;8731;50.364;8.958;2023-01-31T07:46:01;100923.72;;;3.33;90.01
17230;BME280;8731;50.364;8.958;2023-01-31T07:50:28;100928.97;;;3.35;89.78
17230;BME280;8731;50.364;8.958;2023-01-31T07:54:51;100921.41;;;3.35;90.50
17230;BME280;8731;50.364;8.958;2023-01-31T07:59:13;100914.78;;;3.35;90.38
17230;BME280;8731;50.364;8.958;2023-01-31T08:03:36;100936.91;;;3.38;90.40
17230;BME280;8731;50.364;8.958;2023-01-31T08:08:00;100921.81;;;3.38;90.83
17230;BME280;8731;50.364;8.958;2023-01-31T08:12:31;100933.88;;;3.53;90.58
17230;BME280;8731;50.364;8.958;2023-01-31T08:16:53;100929.56;;;3.52;89.64
17230;BME280;8731;50.364;8.958;2023-01-31T08:21:16;100936.31;;;3.59;90.01
17230;BME280;8731;50.364;8.958;2023-01-31T08:25:39;100948.50;;;3.68;90.50
17230;BME280;8731;50.364;8.958;2023-01-31T08:30:03;100940.34;;;3.64;89.26
17230;BME280;8731;50.364;8.958;2023-01-31T08:34:27;100941.13;;;3.70;89.67
17230;BME280;8731;50.364;8.958;2023-01-31T08:38:50;100941.22;;;3.77;89.84
17230;BME280;8731;50.364;8.958;2023-01-31T08:43:13;100940.03;;;3.81;89.05
17230;BME280;8731;50.364;8.958;2023-01-31T08:47:36;100953.81;;;3.90;89.47
17230;BME280;8731;50.364;8.958;2023-01-31T08:51:59;100950.59;;;3.91;89.50
17230;BME280;8731;50.364;8.958;2023-01-31T08:56:21;100932.88;;;3.84;89.26
17230;BME280;8731;50.364;8.958;2023-01-31T09:00:45;100942.34;;;3.92;89.82
17230;BME280;8731;50.364;8.958;2023-01-31T09:05:09;100946.97;;;3.89;88.86
17230;BME280;8731;50.364;8.958;2023-01-31T09:09:31;100946.28;;;4.03;89.90
17230;BME280;8731;50.364;8.958;2023-01-31T09:13:53;100953.59;;;4.01;89.01
17230;BME280;8731;50.364;8.958;2023-01-31T09:18:16;100943.44;;;4.07;89.09
17230;BME280;8731;50.364;8.958;2023-01-31T09:22:39;100942.34;;;3.92;88.56
17230;BME280;8731;50.364;8.958;2023-01-31T09:27:01;100944.66;;;4.03;88.39
17230;BME280;8731;50.364;8.958;2023-01-31T09:31:24;100956.91;;;4.20;87.08
17230;BME280;8731;50.364;8.958;2023-01-31T09:35:55;100959.47;;;4.07;87.20
17230;BME280;8731;50.364;8.958;2023-01-31T09:40:21;100958.19;;;4.23;87.95
17230;BME280;8731;50.364;8.958;2023-01-31T09:44:55;100951.91;;;4.07;86.94
17230;BME280;8731;50.364;8.958;2023-01-31T09:49:25;100915.09;;;4.02;87.97
17230;BME280;8731;50.364;8.958;2023-01-31T09:53:53;100918.03;;;4.05;87.81
17230;BME280;8731;50.364;8.958;2023-01-31T09:58:24;100915.41;;;3.98;87.10
17230;BME280;8731;50.364;8.958;2023-01-31T10:03:17;100915.53;;;4.05;87.57
17230;BME280;8731;50.364;8.958;2023-01-31T10:08:00;100925.88;;;4.01;87.78
17230;BME280;8731;50.364;8.958;2023-01-31T10:12:32;100911.28;;;4.11;87.28
17230;BME280;8731;50.364;8.958;2023-01-31T10:17:06;100922.06;;;3.97;88.18
17230;BME280;8731;50.364;8.958;2023-01-31T10:21:37;100913.28;;;4.01;88.48
17230;BME280;8731;50.364;8.958;2023-01-31T10:26:05;100894.56;;;3.99;89.35
17230;BME280;8731;50.364;8.958;2023-01-31T10:30:41;100896.88;;;3.97;88.39
17230;BME280;8731;50.364;8.958;2023-01-31T10:35:11;100892.88;;;3.92;88.89
17230;BME280;8731;50.364;8.958;2023-01-31T10:39:39;100890.63;;;4.01;89.63
17230;BME280;8731;50.364;8.958;2023-01-31T10:44:06;100899.19;;;3.96;89.48
17230;BME280;8731;50.364;8.958;2023-01-31T10:48:41;100886.00;;;4.04;88.90
17230;BME280;8731;50.364;8.958;2023-01-31T10:53:29;100868.47;;;3.98;89.64
17230;BME280;8731;50.364;8.958;2023-01-31T10:58:01;100864.44;;;4.06;89.25
17230;BME280;8731;50.364;8.958;2023-01-31T11:02:26;100850.09;;;4.12;90.26
17230;BME280;8731;50.364;8.958;2023-01-31T11:06:50;100860.88;;;4.11;89.70
17230;BME280;8731;50.364;8.958;2023-01-31T11:11:16;100851.00;;;4.13;90.11
17230;BME280;8731;50.364;8.958;2023-01-31T11:15:40;100842.47;;;4.25;89.09
17230;BME280;8731;50.364;8.958;2023-01-31T11:20:04;100845.78;;;4.31;89.25
17230;BME280;8731;50.364;8.958;2023-01-31T11:24:32;100805.28;;;4.29;89.23
17230;BME280;8731;50.364;8.958;2023-01-31T11:28:59;100817.69;;;4.28;88.91
17230;BME280;8731;50.364;8.958;2023-01-31T11:33:54;100807.88;;;4.24;89.65
17230;BME280;8731;50.364;8.958;2023-01-31T11:38:19;100794.88;;;4.34;89.68
17230;BME280;8731;50.364;8.958;2023-01-31T11:42:50;100791.06;;;4.30;89.88
17230;BME280;8731;50.364;8.958;2023-01-31T11:47:15;100778.69;;;4.39;90.03
17230;BME280;8731;50.364;8.958;2023-01-31T11:51:37;100771.91;;;4.45;88.72
17230;BME280;8731;50.364;8.958;2023-01-31T11:56:11;100766.31;;;4.47;88.93
17230;BME280;8731;50.364;8.958;2023-01-31T12:00:35;100761.56;;;4.56;88.88
17230;BME280;8731;50.364;8.958;2023-01-31T12:04:59;100733.97;;;4.50;88.89
17230;BME280;8731;50.364;8.958;2023-01-31T12:09:24;100706.72;;;4.48;89.49
17230;BME280;8731;50.364;8.958;2023-01-31T12:13:50;100700.69;;;4.60;89.32
17230;BME280;8731;50.364;8.958;2023-01-31T12:18:13;100708.06;;;4.58;88.83
17230;BME280;8731;50.364;8.958;2023-01-31T12:22:46;100711.34;;;4.65;89.07
17230;BME280;8731;50.364;8.958;2023-01-31T12:27:24;100698.28;;;4.74;88.73
17230;BME280;8731;50.364;8.958;2023-01-31T12:32:11;100683.88;;;4.73;88.97
17230;BME280;8731;50.364;8.958;2023-01-31T12:36:52;100676.28;;;4.73;89.24
17230;BME280;8731;50.364;8.958;2023-01-31T12:41:35;100670.91;;;4.77;89.21
17230;BME280;8731;50.364;8.958;2023-01-31T12:46:06;100666.94;;;4.79;88.85
17230;BME280;8731;50.364;8.958;2023-01-31T12:50:40;100664.28;;;4.85;88.47
17230;BME280;8731;50.364;8.958;2023-01-31T12:55:18;100663.56;;;4.86;88.07
17230;BME280;8731;50.364;8.958;2023-01-31T12:59:51;100654.72;;;4.89;88.19
17230;BME280;8731;50.364;8.958;2023-01-31T13:04:31;100658.34;;;4.91;87.17
17230;BME280;8731;50.364;8.958;2023-01-31T13:09:01;100638.69;;;4.89;86.89
17230;BME280;8731;50.364;8.958;2023-01-31T13:13:31;100624.09;;;4.93;87.97
17230;BME280;8731;50.364;8.958;2023-01-31T13:18:02;100619.97;;;4.94;87.10
17230;BME280;8731;50.364;8.958;2023-01-31T13:22:29;100625.53;;;4.91;87.63
17230;BME280;8731;50.364;8.958;2023-01-31T13:27:01;100625.25;;;5.03;87.41
17230;BME280;8731;50.364;8.958;2023-01-31T13:31:28;100616.41;;;5.06;87.41
17230;BME280;8731;50.364;8.958;2023-01-31T13:36:00;100633.72;;;5.03;88.42
17230;BME280;8731;50.364;8.958;2023-01-31T13:40:31;100616.41;;;5.06;87.82
17230;BME280;8731;50.364;8.958;2023-01-31T13:45:02;100623.09;;;5.06;87.73
17230;BME280;8731;50.364;8.958;2023-01-31T13:49:29;100609.75;;;5.14;87.65
17230;BME280;8731;50.364;8.958;2023-01-31T13:53:58;100596.97;;;5.12;88.28
17230;BME280;8731;50.364;8.958;2023-01-31T13:58:28;100585.97;;;5.19;88.05
17230;BME280;8731;50.364;8.958;2023-01-31T14:03:00;100589.38;;;5.12;88.28
17230;BME280;8731;50.364;8.958;2023-01-31T14:07:23;100594.78;;;5.08;89.47
17230;BME280;8731;50.364;8.958;2023-01-31T14:11:48;100585.59;;;5.09;89.46
17230;BME280;8731;50.364;8.958;2023-01-31T14:16:33;100598.59;;;5.12;89.07
17230;BME280;8731;50.364;8.958;2023-01-31T14:26:33;100581.28;;;5.15;90.11
17230;BME280;8731;50.364;8.958;2023-01-31T14:31:12;100591.00;;;5.12;91.15
17230;BME280;8731;50.364;8.958;2023-01-31T14:35:49;100591.00;;;5.05;92.01
17230;BME280;8731;50.364;8.958;2023-01-31T14:40:29;100589.94;;;5.10;93.44
17230;BME280;8731;50.364;8.958;2023-01-31T14:45:10;100596.59;;;5.09;94.87
17230;BME280;8731;50.364;8.958;2023-01-31T14:50:12;100592.63;;;5.11;95.48
17230;BME280;8731;50.364;8.958;2023-01-31T14:54:57;100580.72;;;5.10;95.58
17230;BME280;8731;50.364;8.958;2023-01-31T14:59:35;100584.53;;;5.14;96.10
17230;BME280;8731;50.364;8.958;2023-01-31T15:04:05;100580.75;;;5.17;96.47
17230;BME280;8731;50.364;8.958;2023-01-31T15:08:44;100583.63;;;5.13;98.04
17230;BME280;8731;50.364;8.958;2023-01-31T15:13:32;100587.22;;;5.15;98.08
17230;BME280;8731;50.364;8.958;2023-01-31T15:17:59;100589.63;;;5.28;97.75
17230;BME280;8731;50.364;8.958;2023-01-31T15:22:26;100593.75;;;5.28;97.40
17230;BME280;8731;50.364;8.958;2023-01-31T15:26:53;100591.00;;;5.19;98.60
17230;BME280;8731;50.364;8.958;2023-01-31T15:31:19;100587.44;;;5.24;99.16
17230;BME280;8731;50.364;8.958;2023-01-31T15:35:49;100583.47;;;5.33;97.66
17230;BME280;8731;50.364;8.958;2023-01-31T15:40:20;100580.41;;;5.29;98.50
17230;BME280;8731;50.364;8.958;2023-01-31T15:44:44;100567.44;;;5.33;98.28
17230;BME280;8731;50.364;8.958;2023-01-31T15:49:20;100585.09;;;5.33;98.47
17230;BME280;8731;50.364;8.958;2023-01-31T15:53:45;100580.25;;;5.34;98.53
17230;BME280;8731;50.364;8.958;2023-01-31T15:58:16;100582.75;;;5.41;98.00
17230;BME280;8731;50.364;8.958;2023-01-31T16:02:40;100585.09;;;5.40;98.43
17230;BME280;8731;50.364;8.958;2023-01-31T16:07:03;100585.09;;;5.40;98.32
17230;BME280;8731;50.364;8.958;2023-01-31T16:11:26;100589.78;;;5.44;98.33
17230;BME280;8731;50.364;8.958;2023-01-31T16:15:51;100596.47;;;5.43;99.56
17230;BME280;8731;50.364;8.958;2023-01-31T16:20:43;100595.06;;;5.45;99.25
17230;BME280;8731;50.364;8.958;2023-01-31T16:25:17;100597.38;;;5.44;98.86
17230;BME280;8731;50.364;8.958;2023-01-31T16:29:42;100605.16;;;5.45;99.53
17230;BME280;8731;50.364;8.958;2023-01-31T16:34:21;100602.81;;;5.47;99.25
17230;BME280;8731;50.364;8.958;2023-01-31T16:38:54;100604.06;;;5.50;99.54
17230;BME280;8731;50.364;8.958;2023-01-31T16:43:21;100601.19;;;5.47;99.58
17230;BME280;8731;50.364;8.958;2023-01-31T16:47:46;100602.28;;;5.57;99.91
17230;BME280;8731;50.364;8.958;2023-01-31T16:52:17;100610.03;;;5.51;100.00
17230;BME280;8731;50.364;8.958;2023-01-31T16:57:04;100601.00;;;5.60;99.73
17230;BME280;8731;50.364;8.958;2023-01-31T17:01:30;100595.25;;;5.54;99.61
17230;BME280;8731;50.364;8.958;2023-01-31T17:05:54;100601.91;;;5.61;98.94
17230;BME280;8731;50.364;8.958;2023-01-31T17:10:19;100603.72;;;5.69;98.88
17230;BME280;8731;50.364;8.958;2023-01-31T17:14:46;100597.41;;;5.72;99.28
17230;BME280;8731;50.364;8.958;2023-01-31T17:19:08;100603.38;;;5.73;99.73
17230;BME280;8731;50.364;8.958;2023-01-31T17:23:31;100605.00;;;5.72;100.00
17230;BME280;8731;50.364;8.958;2023-01-31T17:27:55;100608.44;;;5.73;100.00
17230;BME280;8731;50.364;8.958;2023-01-31T17:32:19;100608.44;;;5.73;99.91
17230;BME280;8731;50.364;8.958;2023-01-31T17:36:42;100606.97;;;5.75;100.00
17230;BME280;8731;50.364;8.958;2023-01-31T17:41:09;100606.06;;;5.74;100.00
17230;BME280;8731;50.364;8.958;2023-01-31T17:45:35;100605.72;;;5.78;99.88
17230;BME280;8731;50.364;8.958;2023-01-31T17:49:59;100603.00;;;5.77;100.00
17230;BME280;8731;50.364;8.958;2023-01-31T17:54:21;100595.25;;;5.75;100.00
17230;BME280;8731;50.364;8.958;2023-01-31T17:58:44;100596.16;;;5.76;100.00
17230;BME280;8731;50.364;8.958;2023-01-31T18:03:14;100596.84;;;5.68;100.00
17230;BME280;8731;50.364;8.958;2023-01-31T18:07:38;100601.56;;;5.72;100.00
17230;BME280;8731;50.364;8.958;2023-01-31T18:12:00;100601.03;;;5.74;99.42
17230;BME280;8731;50.364;8.958;2023-01-31T18:16:22;100613.09;;;5.84;100.00
17230;BME280;8731;50.364;8.958;2023-01-31T18:20:47;100594.16;;;5.80;99.45
17230;BME280;8731;50.364;8.958;2023-01-31T18:25:09;100594.16;;;5.80;99.45
17230;BME280;8731;50.364;8.958;2023-01-31T18:29:31;100598.66;;;5.83;99.68
17230;BME280;8731;50.364;8.958;2023-01-31T18:33:54;100604.06;;;5.86;99.98
17230;BME280;8731;50.364;8.958;2023-01-31T18:38:17;100604.63;;;5.91;99.56
17230;BME280;8731;50.364;8.958;2023-01-31T18:42:39;100605.03;;;5.94;99.94
17230;BME280;8731;50.364;8.958;2023-01-31T18:47:02;100608.28;;;5.93;100.00
17230;BME280;8731;50.364;8.958;2023-01-31T18:51:24;100625.38;;;5.88;100.00
17230;BME280;8731;50.364;8.958;2023-01-31T18:55:48;100613.63;;;5.89;100.00
17230;BME280;8731;50.364;8.958;2023-01-31T19:00:20;100613.84;;;5.90;100.00
17230;BME280;8731;50.364;8.958;2023-01-31T19:04:43;100625.97;;;5.93;100.00
17230;BME280;8731;50.364;8.958;2023-01-31T19:09:06;100612.25;;;5.98;100.00
17230;BME280;8731;50.364;8.958;2023-01-31T19:13:30;100620.72;;;5.98;100.00
17230;BME280;8731;50.364;8.958;2023-01-31T19:17:53;100616.94;;;5.95;100.00
17230;BME280;8731;50.364;8.958;2023-01-31T19:22:15;100609.19;;;5.93;100.00
17230;BME280;8731;50.364;8.958;2023-01-31T19:26:38;100610.97;;;5.94;100.00
17230;BME280;8731;50.364;8.958;2023-01-31T19:31:04;100604.97;;;5.86;100.00
17230;BME280;8731;50.364;8.958;2023-01-31T19:35:28;100598.69;;;5.90;100.00
17230;BME280;8731;50.364;8.958;2023-01-31T19:39:51;100588.97;;;5.93;100.00
17230;BME280;8731;50.364;8.958;2023-01-31T19:44:13;100597.97;;;5.98;100.00
17230;BME280;8731;50.364;8.958;2023-01-31T19:48:36;100602.47;;;6.01;100.00
17230;BME280;8731;50.364;8.958;2023-01-31T19:52:59;100603.94;;;5.99;100.00
17230;BME280;8731;50.364;8.958;2023-01-31T19:57:21;100599.75;;;6.06;100.00
17230;BME280;8731;50.364;8.958;2023-01-31T20:01:44;100596.88;;;6.03;100.00
17230;BME280;8731;50.364;8.958;2023-01-31T20:06:09;100588.03;;;6.07;100.00
17230;BME280;8731;50.364;8.958;2023-01-31T20:10:33;100590.91;;;6.10;100.00
17230;BME280;8731;50.364;8.958;2023-01-31T20:14:56;100604.81;;;6.06;100.00
17230;BME280;8731;50.364;8.958;2023-01-31T20:19:18;100608.06;;;6.05;100.00
17230;BME280;8731;50.364;8.958;2023-01-31T20:23:43;100604.09;;;6.07;100.00
17230;BME280;8731;50.364;8.958;2023-01-31T20:28:06;100595.44;;;6.05;100.00
17230;BME280;8731;50.364;8.958;2023-01-31T20:32:28;100588.56;;;6.04;100.00
17230;BME280;8731;50.364;8.958;2023-01-31T20:36:50;100596.16;;;6.04;100.00
17230;BME280;8731;50.364;8.958;2023-01-31T20:41:14;100601.03;;;6.03;100.00
17230;BME280;8731;50.364;8.958;2023-01-31T20:45:36;100606.78;;;6.09;100.00
17230;BME280;8731;50.364;8.958;2023-01-31T20:49:58;100612.94;;;6.04;100.00
17230;BME280;8731;50.364;8.958;2023-01-31T20:54:21;100615.47;;;6.04;100.00
17230;BME280;8731;50.364;8.958;2023-01-31T20:58:44;100615.09;;;6.08;100.00
17230;BME280;8731;50.364;8.958;2023-01-31T21:03:07;100627.19;;;6.10;100.00
17230;BME280;8731;50.364;8.958;2023-01-31T21:07:29;100632.59;;;6.13;100.00
17230;BME280;8731;50.364;8.958;2023-01-31T21:11:51;100627.56;;;6.13;100.00
17230;BME280;8731;50.364;8.958;2023-01-31T21:16:15;100623.59;;;6.15;100.00
17230;BME280;8731;50.364;8.958;2023-01-31T21:20:37;100621.78;;;6.07;100.00
17230;BME280;8731;50.364;8.958;2023-01-31T21:24:59;100624.66;;;6.10;100.00
17230;BME280;8731;50.364;8.958;2023-01-31T21:29:22;100627.94;;;6.02;100.00
17230;BME280;8731;50.364;8.958;2023-01-31T21:33:47;100613.13;;;6.05;100.00
17230;BME280;8731;50.364;8.958;2023-01-31T21:38:10;100614.56;;;6.03;100.00
17230;BME280;8731;50.364;8.958;2023-01-31T21:42:32;100608.78;;;6.04;100.00
17230;BME280;8731;50.364;8.958;2023-01-31T21:46:55;100619.63;;;6.03;100.00
17230;BME280;8731;50.364;8.958;2023-01-31T21:51:20;100615.66;;;6.05;100.00
17230;BME280;8731;50.364;8.958;2023-01-31T21:55:45;100595.25;;;6.11;100.00
17230;BME280;8731;50.364;8.958;2023-01-31T22:00:08;100599.41;;;6.03;100.00
17230;BME280;8731;50.364;8.958;2023-01-31T22:04:32;100592.94;;;5.98;100.00
17230;BME280;8731;50.364;8.958;2023-01-31T22:08:57;100571.06;;;6.06;100.00
17230;BME280;8731;50.364;8.958;2023-01-31T22:13:20;100567.81;;;6.07;100.00
17230;BME280;8731;50.364;8.958;2023-01-31T22:17:42;100568.88;;;6.09;100.00
17230;BME280;8731;50.364;8.958;2023-01-31T22:22:05;100567.97;;;6.08;100.00
17230;BME280;8731;50.364;8.958;2023-01-31T22:26:30;100555.91;;;6.06;100.00
17230;BME280;8731;50.364;8.958;2023-01-31T22:30:54;100545.97;;;6.07;100.00
17230;BME280;8731;50.364;8.958;2023-01-31T22:35:17;100558.97;;;6.03;100.00
17230;BME280;8731;50.364;8.958;2023-01-31T22:39:40;100550.50;;;6.03;100.00
17230;BME280;8731;50.364;8.958;2023-01-31T22:44:04;100562.94;;;6.01;100.00
17230;BME280;8731;50.364;8.958;2023-01-31T22:48:26;100562.22;;;6.02;100.00
17230;BME280;8731;50.364;8.958;2023-01-31T22:52:48;100565.84;;;5.97;100.00
17230;BME280;8731;50.364;8.958;2023-01-31T22:57:10;100578.47;;;6.04;100.00
17230;BME280;8731;50.364;8.958;2023-01-31T23:01:37;100569.06;;;6.10;99.62
17230;BME280;8731;50.364;8.958;2023-01-31T23:06:01;100556.44;;;6.03;99.56
17230;BME280;8731;50.364;8.958;2023-01-31T23:10:24;100550.13;;;6.07;99.38
17230;BME280;8731;50.364;8.958;2023-01-31T23:14:47;100553.72;;;6.09;100.00
17230;BME280;8731;50.364;8.958;2023-01-31T23:19:11;100549.03;;;6.05;100.00
17230;BME280;8731;50.364;8.958;2023-01-31T23:23:35;100545.63;;;5.97;100.00
17230;BME280;8731;50.364;8.958;2023-01-31T23:27:57;100541.63;;;6.06;100.00
17230;BME280;8731;50.364;8.958;2023-01-31T23:32:21;100540.91;;;6.07;100.00
17230;BME280;8731;50.364;8.958;2023-01-31T23:36:45;100536.59;;;5.99;100.00
17230;BME280;8731;50.364;8.958;2023-01-31T23:41:07;100526.66;;;6.01;100.00
17230;BME280;8731;50.364;8.958;2023-01-31T23:45:30;100525.78;;;6.00;100.00
17230;BME280;8731;50.364;8.958;2023-01-31T23:49:52;100515.66;;;6.00;100.00
17230;BME280;8731;50.364;8.958;2023-01-31T23:54:16;100518.19;;;6.00;100.00
17230;BME280;8731;50.364;8.958;2023-01-31T23:58:38;100520.72;;;6.00;100.00
